Weather History for KCMD - April, 2014

Change the Weather History Date:

Thursday, April 24, 2014

  Actual Average Record
Temperature  
Mean Temperature 61 °F -  
Max Temperature 79 °F - - ()
Min Temperature 43 °F - - ()
Degree Days  
Heating Degree Days 4    
Growing Degree Days 11 (Base 50)    
Moisture  
Dew Point 47 °F    
Average Humidity 57    
Maximum Humidity 93    
Minimum Humidity 36    
Precipitation  
Precipitation 0.05 in - - ()
Sea Level Pressure  
Sea Level Pressure 29.95 in    
Wind  
Wind Speed 4 mph (SSE)    
Max Wind Speed 16 mph    
Max Gust Speed 22 mph    
Visibility 10 miles    
Events Rain , Thunderstorm    
T = Trace of Precipitation, MM = Missing Value Source: NWS Daily Summary

Daily Weather History Graph

Daily Weather History Graph

Search for Another Location

Airport or City:

Trip Planner

Search our weather history database for the weather conditions in past years. The results will help you decide how hot, cold, wet, or windy it might be!

Date:

Astronomy

Apr. 24, 2014 Rise Set
Actual Time 6:05 AM CDT 7:26 PM CDT
Civil Twilight 5:39 AM CDT 7:52 PM CDT
Nautical Twilight 5:07 AM CDT 8:24 PM CDT
Astronomical Twilight 4:34 AM CDT 8:56 PM CDT
Moon 3:02 AM CDT 2:53 PM CDT
Length of Visible Light 14h 13m
Length of Day
13h 20m
Waning Crescent, 24% of the Moon is Illuminated
Apr 24
Waning Crescent
Apr 29
New
May 6
First Quarter
May 14
Full
May 21
Last Quarter

Hourly Weather History & Observations

Time (CDT) Temp. Windchill Dew Point Humidity Pressure Visibility Wind Dir Wind Speed Gust Speed Precip Events Conditions
12:15 AM 46.6 °F - 41.5 °F 83% 29.99 in 10.0 mi Calm Calm - N/A   Clear
12:35 AM 46.4 °F - 40.8 °F 81% 29.99 in 10.0 mi Calm Calm - N/A   Clear
12:55 AM 45.5 °F - 41.2 °F 85% 29.99 in 10.0 mi Calm Calm - N/A   Clear
1:15 AM 45.3 °F - 41.4 °F 86% 29.98 in 10.0 mi Calm Calm - N/A   Clear
1:35 AM 45.1 °F - 41.4 °F 87% 29.99 in 10.0 mi Calm Calm - N/A   Clear
1:55 AM 44.2 °F - 41.0 °F 88% 29.98 in 10.0 mi Calm Calm - N/A   Clear
2:15 AM 44.1 °F - 41.5 °F 91% 29.97 in 10.0 mi Calm Calm - N/A   Clear
2:35 AM 43.3 °F - 41.4 °F 93% 29.97 in 10.0 mi Calm Calm - N/A   Clear
2:55 AM 43.3 °F - 41.5 °F 93% 29.97 in 10.0 mi Calm Calm - N/A   Clear
3:15 AM 44.1 °F - 41.5 °F 91% 29.97 in 10.0 mi Calm Calm - N/A   Clear
3:35 AM 45.5 °F 44.2 °F 40.6 °F 83% 29.98 in 10.0 mi ENE 3.5 mph - N/A   Clear
3:55 AM 47.3 °F - 39.7 °F 75% 29.97 in 10.0 mi ENE 3.5 mph - N/A   Clear
4:15 AM 47.3 °F - 39.2 °F 73% 29.97 in 10.0 mi ENE 4.6 mph - N/A   Clear
4:35 AM 47.7 °F - 38.8 °F 71% 29.98 in 10.0 mi NE 3.5 mph - N/A   Clear
4:55 AM 45.9 °F 44.6 °F 39.4 °F 78% 29.99 in 10.0 mi ENE 3.5 mph - N/A   Clear
5:15 AM 45.9 °F 43.6 °F 39.6 °F 79% 29.99 in 10.0 mi ENE 4.6 mph - N/A   Clear
5:35 AM 46.0 °F 43.9 °F 39.6 °F 78% 29.99 in 10.0 mi ENE 4.6 mph - N/A   Clear
5:55 AM 47.8 °F - 38.7 °F 70% 29.99 in 10.0 mi ENE 4.6 mph - N/A   Clear
6:15 AM 50.9 °F - 37.9 °F 61% 29.99 in 10.0 mi East 3.5 mph - N/A   Clear
6:35 AM 52.5 °F - 37.9 °F 58% 30.00 in 10.0 mi Calm Calm - N/A   Clear
6:55 AM 52.0 °F - 39.2 °F 62% 30.01 in 10.0 mi ENE 3.5 mph - N/A   Clear
7:15 AM 54.5 °F - 38.5 °F 55% 30.01 in 10.0 mi East 5.8 mph - N/A   Clear
7:35 AM 56.8 °F - 37.8 °F 49% 30.02 in 10.0 mi East 4.6 mph - N/A   Clear
7:55 AM 58.1 °F - 37.8 °F 47% 30.02 in 10.0 mi East 5.8 mph - N/A   Clear
8:15 AM 59.2 °F - 38.5 °F 46% 30.03 in 10.0 mi East 4.6 mph - N/A   Clear
8:35 AM 60.1 °F - 39.2 °F 46% 30.03 in 10.0 mi East 6.9 mph - N/A   Clear
8:55 AM 61.2 °F - 39.9 °F 46% 30.03 in 10.0 mi ESE 4.6 mph - N/A   Clear
9:15 AM 62.8 °F - 41.4 °F 45% 30.04 in 10.0 mi ESE 5.8 mph - N/A   Clear
9:35 AM 64.0 °F - 41.5 °F 44% 30.03 in 10.0 mi ESE 6.9 mph - N/A   Clear
9:55 AM 65.7 °F - 42.4 °F 43% 30.03 in 10.0 mi SSE 4.6 mph - N/A   Clear
10:15 AM 67.5 °F - 42.8 °F 41% 30.02 in 10.0 mi SSE 6.9 mph - N/A   Clear
10:35 AM 69.3 °F - 43.3 °F 39% 30.02 in 10.0 mi SE 5.8 mph - N/A   Clear
10:55 AM 70.7 °F - 44.1 °F 38% 30.01 in 10.0 mi SE 6.9 mph - N/A   Clear
11:15 AM 71.8 °F - 44.2 °F 37% 30.01 in 10.0 mi South 8.1 mph - N/A   Clear
11:35 AM 72.9 °F - 45.7 °F 38% 30.00 in 10.0 mi South 10.4 mph - N/A   Clear
11:55 AM 74.3 °F - 46.2 °F 37% 29.99 in 10.0 mi South 8.1 mph - N/A   Clear
12:15 PM 75.4 °F - 46.8 °F 36% 29.98 in 10.0 mi South 8.1 mph - N/A   Clear
12:35 PM 76.3 °F - 47.7 °F 36% 29.98 in 10.0 mi South 10.4 mph - N/A   Clear
12:55 PM 77.0 °F - 49.3 °F 38% 29.97 in 10.0 mi South 12.7 mph 16.1 mph N/A   Clear
1:15 PM 77.4 °F - 50.0 °F 38% 29.96 in 5.0 mi South 15.0 mph 19.6 mph N/A   Haze
1:35 PM 77.5 °F - 50.7 °F 39% 29.96 in 10.0 mi South 13.8 mph 19.6 mph N/A   Clear
1:55 PM 77.5 °F - 50.9 °F 39% 29.96 in 10.0 mi SSW 12.7 mph 20.7 mph N/A   Scattered Clouds
2:15 PM 78.1 °F - 52.2 °F 40% 29.95 in 10.0 mi South 12.7 mph 20.7 mph N/A   Scattered Clouds
2:35 PM 78.8 °F - 51.6 °F 39% 29.94 in 10.0 mi SSW 10.4 mph 21.9 mph N/A   Clear
2:55 PM 78.8 °F - 51.6 °F 39% 29.93 in 10.0 mi SSW 13.8 mph 17.3 mph N/A   Clear
3:15 PM 78.4 °F - 52.0 °F 40% 29.93 in 10.0 mi SSW 12.7 mph 19.6 mph N/A   Clear
3:35 PM 78.4 °F - 52.5 °F 40% 29.91 in 10.0 mi SSW 15.0 mph 19.6 mph N/A   Clear
3:55 PM 78.3 °F - 52.7 °F 41% 29.91 in 10.0 mi SSW 6.9 mph - N/A   Clear
4:15 PM 78.1 °F - 52.5 °F 41% 29.91 in 10.0 mi SSW 9.2 mph - N/A   Clear
4:35 PM 78.8 °F - 53.8 °F 42% 29.90 in 10.0 mi South 10.4 mph - N/A   Scattered Clouds
4:55 PM 79.3 °F - 54.3 °F 42% 29.89 in 10.0 mi SSW 13.8 mph - N/A   Clear
5:15 PM 78.6 °F - 53.1 °F 41% 29.88 in 10.0 mi SSW 8.1 mph 17.3 mph N/A   Scattered Clouds
5:35 PM 77.5 °F - 52.5 °F 42% 29.87 in 10.0 mi SSW 9.2 mph - N/A   Scattered Clouds
5:55 PM 77.4 °F - 53.1 °F 43% 29.87 in 10.0 mi South 10.4 mph - N/A   Clear
6:15 PM 77.4 °F - 53.6 °F 44% 29.86 in 10.0 mi South 8.1 mph - N/A   Scattered Clouds
6:35 PM 76.3 °F - 53.4 °F 45% 29.87 in 10.0 mi SSW 5.8 mph - N/A   Clear
6:55 PM 75.4 °F - 53.1 °F 46% 29.88 in 10.0 mi SSW 5.8 mph - N/A   Clear
7:15 PM 73.8 °F - 54.1 °F 50% 29.87 in 10.0 mi SSE 5.8 mph - N/A   Clear
7:35 PM 72.5 °F - 53.8 °F 52% 29.88 in 10.0 mi SSE 3.5 mph - N/A   Clear
7:55 PM 71.2 °F - 54.0 °F 54% 29.87 in 10.0 mi South 4.6 mph - N/A   Clear
8:15 PM 69.8 °F - 54.7 °F 59% 29.86 in 7.0 mi SSE 4.6 mph - N/A   Clear
8:35 PM 69.8 °F - 54.7 °F 59% 29.87 in 10.0 mi SSE 3.5 mph - N/A   Clear
8:55 PM 68.5 °F - 54.9 °F 62% 29.88 in 10.0 mi Calm Calm - N/A   Clear
9:15 PM 67.8 °F - 55.2 °F 64% 29.88 in 10.0 mi South 4.6 mph - N/A   Clear
9:35 PM 68.4 °F - 55.4 °F 63% 29.87 in 10.0 mi SSE 5.8 mph - N/A   Clear
9:55 PM 69.8 °F - 55.0 °F 59% 29.86 in 10.0 mi SSE 6.9 mph - N/A   Clear
10:15 PM 68.7 °F - 55.4 °F 62% 29.87 in 10.0 mi South 6.9 mph - N/A   Scattered Clouds
10:35 PM 69.1 °F - 55.8 °F 62% 29.85 in 10.0 mi South 6.9 mph - N/A   Scattered Clouds
10:55 PM 69.8 °F - 56.3 °F 62% 29.88 in 10.0 mi SSW 8.1 mph - N/A Rain Light Rain
11:15 PM 68.5 °F - 57.4 °F 67% 29.89 in 10.0 mi SSW 8.1 mph - 0.01 in Rain , Thunderstorm Rain
11:35 PM 66.0 °F - 59.4 °F 79% 29.90 in 10.0 mi SSW 11.5 mph 16.1 mph 0.03 in Rain , Thunderstorm Thunderstorms and Rain
11:55 PM 65.5 °F - 60.4 °F 84% 29.83 in 10.0 mi South 16.1 mph - 0.05 in Rain , Thunderstorm Light Thunderstorms and Rain